sensor_id;sensor_type;location;lat;lon;timestamp;pressure;altitude;pressure_sealevel;temperature;humidity
13050;BME280;6591;51.446;5.404;2022-10-18T00:01:02;102234.84;;;22.11;59.08
13050;BME280;6591;51.446;5.404;2022-10-18T00:03:30;102230.31;;;22.11;58.84
13050;BME280;6591;51.446;5.404;2022-10-18T00:05:58;102232.91;;;22.13;58.98
13050;BME280;6591;51.446;5.404;2022-10-18T00:08:26;102224.81;;;22.13;59.03
13050;BME280;6591;51.446;5.404;2022-10-18T00:10:53;102220.25;;;22.13;58.75
13050;BME280;6591;51.446;5.404;2022-10-18T00:13:21;102222.09;;;22.13;59.09
13050;BME280;6591;51.446;5.404;2022-10-18T00:15:57;102224.03;;;22.11;59.25
13050;BME280;6591;51.446;5.404;2022-10-18T00:18:24;102220.34;;;22.12;59.20
13050;BME280;6591;51.446;5.404;2022-10-18T00:21:04;102220.34;;;22.12;59.02
13050;BME280;6591;51.446;5.404;2022-10-18T00:23:34;102216.69;;;22.13;59.07
13050;BME280;6591;51.446;5.404;2022-10-18T00:26:06;102223.94;;;22.12;58.50
13050;BME280;6591;51.446;5.404;2022-10-18T00:28:35;102214.94;;;22.12;58.79
13050;BME280;6591;51.446;5.404;2022-10-18T00:33:41;102214.94;;;22.12;59.18
13050;BME280;6591;51.446;5.404;2022-10-18T00:36:10;102227.50;;;22.13;59.25
13050;BME280;6591;51.446;5.404;2022-10-18T00:38:37;102229.25;;;22.14;58.92
13050;BME280;6591;51.446;5.404;2022-10-18T00:41:08;102219.50;;;22.11;58.98
13050;BME280;6591;51.446;5.404;2022-10-18T00:43:59;102216.88;;;22.10;59.11
13050;BME280;6591;51.446;5.404;2022-10-18T00:46:34;102219.38;;;22.13;59.35
13050;BME280;6591;51.446;5.404;2022-10-18T00:49:11;102220.34;;;22.12;58.93
13050;BME280;6591;51.446;5.404;2022-10-18T00:51:48;102225.78;;;22.12;59.12
13050;BME280;6591;51.446;5.404;2022-10-18T00:54:17;102225.53;;;22.15;58.96
13050;BME280;6591;51.446;5.404;2022-10-18T00:56:45;102226.41;;;22.15;59.20
13050;BME280;6591;51.446;5.404;2022-10-18T00:59:15;102230.94;;;22.15;58.86
13050;BME280;6591;51.446;5.404;2022-10-18T01:01:43;102231.81;;;22.15;59.07
13050;BME280;6591;51.446;5.404;2022-10-18T01:04:13;102229.25;;;22.14;58.96
13050;BME280;6591;51.446;5.404;2022-10-18T01:07:12;102237.66;;;22.09;58.93
13050;BME280;6591;51.446;5.404;2022-10-18T01:15:29;102236.78;;;22.09;59.01
13050;BME280;6591;51.446;5.404;2022-10-18T01:19:02;102244.16;;;22.07;59.25
13050;BME280;6591;51.446;5.404;2022-10-18T01:29:34;102230.00;;;22.03;59.28
13050;BME280;6591;51.446;5.404;2022-10-18T01:32:09;102232.38;;;22.08;59.43
13050;BME280;6591;51.446;5.404;2022-10-18T01:34:40;102233.34;;;22.07;59.17
13050;BME280;6591;51.446;5.404;2022-10-18T01:37:16;102240.25;;;22.11;59.25
13050;BME280;6591;51.446;5.404;2022-10-18T01:39:47;102240.25;;;22.11;58.83
13050;BME280;6591;51.446;5.404;2022-10-18T01:42:19;102242.88;;;22.12;59.03
13050;BME280;6591;51.446;5.404;2022-10-18T01:44:49;102251.72;;;22.14;58.99
13050;BME280;6591;51.446;5.404;2022-10-18T01:47:19;102245.47;;;22.14;58.68
13050;BME280;6591;51.446;5.404;2022-10-18T01:49:47;102243.75;;;22.13;58.99
13050;BME280;6591;51.446;5.404;2022-10-18T01:52:16;102242.78;;;22.14;59.01
13050;BME280;6591;51.446;5.404;2022-10-18T01:54:46;102240.91;;;22.14;59.13
13050;BME280;6591;51.446;5.404;2022-10-18T01:57:40;102246.53;;;22.11;58.95
13050;BME280;6591;51.446;5.404;2022-10-18T02:00:22;102241.22;;;22.10;58.75
13050;BME280;6591;51.446;5.404;2022-10-18T02:03:03;102234.09;;;22.09;59.18
13050;BME280;6591;51.446;5.404;2022-10-18T02:11:03;102247.84;;;22.06;58.85
13050;BME280;6591;51.446;5.404;2022-10-18T02:13:54;102232.81;;;22.02;58.85
13050;BME280;6591;51.446;5.404;2022-10-18T02:16:35;102234.66;;;22.01;59.25
13050;BME280;6591;51.446;5.404;2022-10-18T02:19:15;102229.34;;;22.00;59.05
13050;BME280;6591;51.446;5.404;2022-10-18T02:21:46;102243.41;;;22.05;59.12
13050;BME280;6591;51.446;5.404;2022-10-18T02:24:14;102237.88;;;22.06;59.05
13050;BME280;6591;51.446;5.404;2022-10-18T02:26:44;102234.41;;;22.04;59.26
13050;BME280;6591;51.446;5.404;2022-10-18T02:29:11;102243.31;;;22.06;59.10
13050;BME280;6591;51.446;5.404;2022-10-18T02:31:45;102240.69;;;22.05;59.09
13050;BME280;6591;51.446;5.404;2022-10-18T02:34:31;102243.53;;;22.03;59.05
13050;BME280;6591;51.446;5.404;2022-10-18T02:37:02;102245.91;;;22.08;58.99
13050;BME280;6591;51.446;5.404;2022-10-18T02:39:45;102248.72;;;22.06;58.74
13050;BME280;6591;51.446;5.404;2022-10-18T02:42:14;102248.47;;;22.09;59.02
13050;BME280;6591;51.446;5.404;2022-10-18T02:44:41;102247.63;;;22.09;58.99
13050;BME280;6591;51.446;5.404;2022-10-18T02:47:10;102254.75;;;22.10;59.00
13050;BME280;6591;51.446;5.404;2022-10-18T02:49:38;102250.44;;;22.07;58.69
13050;BME280;6591;51.446;5.404;2022-10-18T02:52:05;102247.06;;;22.04;58.89
13050;BME280;6591;51.446;5.404;2022-10-18T02:54:32;102244.38;;;22.04;58.85
13050;BME280;6591;51.446;5.404;2022-10-18T02:56:59;102245.47;;;22.01;58.69
13050;BME280;6591;51.446;5.404;2022-10-18T02:59:26;102256.63;;;21.96;59.12
13050;BME280;6591;51.446;5.404;2022-10-18T03:01:53;102258.63;;;21.93;58.91
13050;BME280;6591;51.446;5.404;2022-10-18T03:04:20;102247.81;;;21.93;58.76
13050;BME280;6591;51.446;5.404;2022-10-18T03:06:47;102256.78;;;21.93;58.89
13050;BME280;6591;51.446;5.404;2022-10-18T03:09:14;102251.38;;;21.93;59.30
13050;BME280;6591;51.446;5.404;2022-10-18T03:11:41;102257.69;;;21.94;59.44
13050;BME280;6591;51.446;5.404;2022-10-18T03:14:08;102251.38;;;21.93;58.71
13050;BME280;6591;51.446;5.404;2022-10-18T03:16:34;102241.56;;;21.92;59.07
13050;BME280;6591;51.446;5.404;2022-10-18T03:19:02;102249.56;;;21.94;59.24
13050;BME280;6591;51.446;5.404;2022-10-18T03:21:29;102251.38;;;21.93;58.79
13050;BME280;6591;51.446;5.404;2022-10-18T03:23:56;102250.63;;;21.91;59.51
13050;BME280;6591;51.446;5.404;2022-10-18T03:26:24;102256.03;;;21.91;59.02
13050;BME280;6591;51.446;5.404;2022-10-18T03:28:53;102262.53;;;21.89;59.02
13050;BME280;6591;51.446;5.404;2022-10-18T03:31:20;102266.09;;;21.89;59.09
13050;BME280;6591;51.446;5.404;2022-10-18T03:33:47;102260.78;;;21.88;58.97
13050;BME280;6591;51.446;5.404;2022-10-18T03:36:14;102266.41;;;21.85;58.89
13050;BME280;6591;51.446;5.404;2022-10-18T03:38:42;102267.28;;;21.85;58.97
13050;BME280;6591;51.446;5.404;2022-10-18T03:41:09;102257.44;;;21.84;58.90
13050;BME280;6591;51.446;5.404;2022-10-18T03:43:36;102266.41;;;21.85;59.57
13050;BME280;6591;51.446;5.404;2022-10-18T03:46:03;102261.97;;;21.84;59.21
13050;BME280;6591;51.446;5.404;2022-10-18T03:48:30;102255.59;;;21.85;59.60
13050;BME280;6591;51.446;5.404;2022-10-18T03:50:57;102259.94;;;21.87;59.11
13050;BME280;6591;51.446;5.404;2022-10-18T03:53:24;102248.25;;;21.87;58.84
13050;BME280;6591;51.446;5.404;2022-10-18T03:55:55;102242.94;;;21.85;59.29
13050;BME280;6591;51.446;5.404;2022-10-18T03:58:23;102243.72;;;21.87;58.91
13050;BME280;6591;51.446;5.404;2022-10-18T04:00:52;102246.28;;;21.89;58.54
13050;BME280;6591;51.446;5.404;2022-10-18T04:03:21;102243.72;;;21.87;58.64
13050;BME280;6591;51.446;5.404;2022-10-18T04:05:49;102249.22;;;21.86;58.24
13050;BME280;6591;51.446;5.404;2022-10-18T04:08:17;102250.28;;;21.83;58.14
13050;BME280;6591;51.446;5.404;2022-10-18T04:10:45;102254.97;;;21.81;58.56
13050;BME280;6591;51.446;5.404;2022-10-18T04:13:12;102249.75;;;21.78;58.68
13050;BME280;6591;51.446;5.404;2022-10-18T04:15:39;102249.97;;;21.75;58.20
13050;BME280;6591;51.446;5.404;2022-10-18T04:18:07;102250.16;;;21.72;58.81
13050;BME280;6591;51.446;5.404;2022-10-18T04:20:34;102255.81;;;21.69;58.64
13050;BME280;6591;51.446;5.404;2022-10-18T04:23:01;102250.63;;;21.66;58.79
13050;BME280;6591;51.446;5.404;2022-10-18T04:25:28;102249.84;;;21.64;58.67
13050;BME280;6591;51.446;5.404;2022-10-18T04:27:55;102257.19;;;21.62;58.67
13050;BME280;6591;51.446;5.404;2022-10-18T04:30:22;102256.53;;;21.59;58.59
13050;BME280;6591;51.446;5.404;2022-10-18T04:32:51;102259.34;;;21.57;58.58
13050;BME280;6591;51.446;5.404;2022-10-18T04:35:18;102253.38;;;21.52;58.63
13050;BME280;6591;51.446;5.404;2022-10-18T04:37:48;102251.00;;;21.47;58.36
13050;BME280;6591;51.446;5.404;2022-10-18T04:40:15;102262.69;;;21.48;58.41
13050;BME280;6591;51.446;5.404;2022-10-18T04:42:42;102260.31;;;21.43;58.29
13050;BME280;6591;51.446;5.404;2022-10-18T04:45:10;102262.34;;;21.40;58.63
13050;BME280;6591;51.446;5.404;2022-10-18T04:47:37;102264.06;;;21.41;58.70
13050;BME280;6591;51.446;5.404;2022-10-18T04:50:04;102267.09;;;21.36;58.13
13050;BME280;6591;51.446;5.404;2022-10-18T04:52:31;102264.59;;;21.33;58.31
13050;BME280;6591;51.446;5.404;2022-10-18T04:54:58;102256.81;;;21.29;58.25
13050;BME280;6591;51.446;5.404;2022-10-18T04:57:25;102270.50;;;21.26;58.55
13050;BME280;6591;51.446;5.404;2022-10-18T04:59:52;102268.03;;;21.23;58.55
13050;BME280;6591;51.446;5.404;2022-10-18T05:02:19;102268.44;;;21.17;58.47
13050;BME280;6591;51.446;5.404;2022-10-18T05:04:46;102271.22;;;21.15;58.25
13050;BME280;6591;51.446;5.404;2022-10-18T05:07:13;102261.78;;;21.08;58.52
13050;BME280;6591;51.446;5.404;2022-10-18T05:09:40;102268.38;;;21.04;58.98
13050;BME280;6591;51.446;5.404;2022-10-18T05:12:07;102265.84;;;21.01;58.95
13050;BME280;6591;51.446;5.404;2022-10-18T05:14:34;102274.03;;;20.99;59.27
13050;BME280;6591;51.446;5.404;2022-10-18T05:17:01;102266.16;;;20.96;58.85
13050;BME280;6591;51.446;5.404;2022-10-18T05:19:28;102273.31;;;20.97;58.89
13050;BME280;6591;51.446;5.404;2022-10-18T05:21:57;102275.22;;;20.95;58.45
13050;BME280;6591;51.446;5.404;2022-10-18T05:24:24;102279.88;;;20.93;58.53
13050;BME280;6591;51.446;5.404;2022-10-18T05:26:53;102279.09;;;20.91;58.46
13050;BME280;6591;51.446;5.404;2022-10-18T05:29:20;102274.75;;;20.89;58.91
13050;BME280;6591;51.446;5.404;2022-10-18T05:31:48;102277.56;;;20.87;58.69
13050;BME280;6591;51.446;5.404;2022-10-18T05:34:16;102271.41;;;20.85;58.77
13050;BME280;6591;51.446;5.404;2022-10-18T05:36:43;102280.47;;;20.84;58.52
13050;BME280;6591;51.446;5.404;2022-10-18T05:39:10;102274.41;;;20.81;58.89
13050;BME280;6591;51.446;5.404;2022-10-18T05:41:37;102288.00;;;20.79;58.75
13050;BME280;6591;51.446;5.404;2022-10-18T05:44:05;102282.91;;;20.75;58.66
13050;BME280;6591;51.446;5.404;2022-10-18T05:46:33;102283.97;;;20.72;59.19
13050;BME280;6591;51.446;5.404;2022-10-18T05:49:00;102279.63;;;20.69;59.14
13050;BME280;6591;51.446;5.404;2022-10-18T05:51:27;102284.84;;;20.73;59.16
13050;BME280;6591;51.446;5.404;2022-10-18T05:53:54;102281.28;;;20.72;59.25
13050;BME280;6591;51.446;5.404;2022-10-18T05:56:21;102291.94;;;20.73;58.79
13050;BME280;6591;51.446;5.404;2022-10-18T05:58:51;102302.88;;;20.72;58.84
13050;BME280;6591;51.446;5.404;2022-10-18T06:01:19;102303.94;;;20.69;58.40
13050;BME280;6591;51.446;5.404;2022-10-18T06:03:46;102300.56;;;20.66;58.51
13050;BME280;6591;51.446;5.404;2022-10-18T06:06:14;102306.13;;;20.63;58.36
13050;BME280;6591;51.446;5.404;2022-10-18T06:08:42;102311.75;;;20.60;58.05
13050;BME280;6591;51.446;5.404;2022-10-18T06:11:16;102323.88;;;20.53;58.36
13050;BME280;6591;51.446;5.404;2022-10-18T06:13:47;102323.31;;;20.48;58.31
13050;BME280;6591;51.446;5.404;2022-10-18T06:16:18;102322.66;;;20.44;58.15
13050;BME280;6591;51.446;5.404;2022-10-18T06:18:54;102308.56;;;20.39;58.32
13050;BME280;6591;51.446;5.404;2022-10-18T06:21:23;102315.03;;;20.37;58.40
13050;BME280;6591;51.446;5.404;2022-10-18T06:23:59;102322.53;;;20.32;58.30
13050;BME280;6591;51.446;5.404;2022-10-18T06:26:27;102323.50;;;20.30;58.38
13050;BME280;6591;51.446;5.404;2022-10-18T06:29:00;102324.63;;;20.26;58.19
13050;BME280;6591;51.446;5.404;2022-10-18T06:31:27;102326.44;;;20.26;58.46
13050;BME280;6591;51.446;5.404;2022-10-18T06:33:56;102328.47;;;20.22;58.62
13050;BME280;6591;51.446;5.404;2022-10-18T06:36:28;102322.28;;;20.20;59.16
13050;BME280;6591;51.446;5.404;2022-10-18T06:38:55;102321.34;;;20.21;59.45
13050;BME280;6591;51.446;5.404;2022-10-18T06:41:22;102330.22;;;20.23;59.72
13050;BME280;6591;51.446;5.404;2022-10-18T06:43:52;102333.78;;;20.24;59.35
13050;BME280;6591;51.446;5.404;2022-10-18T06:46:19;102338.22;;;20.25;59.47
13050;BME280;6591;51.446;5.404;2022-10-18T06:48:46;102333.59;;;20.27;59.55
13050;BME280;6591;51.446;5.404;2022-10-18T06:51:13;102336.19;;;20.28;59.68
13050;BME280;6591;51.446;5.404;2022-10-18T06:53:41;102341.41;;;20.32;59.66
13050;BME280;6591;51.446;5.404;2022-10-18T06:56:24;102341.34;;;20.33;59.29
13050;BME280;6591;51.446;5.404;2022-10-18T06:58:51;102352.91;;;20.35;59.70
13050;BME280;6591;51.446;5.404;2022-10-18T07:01:19;102357.31;;;20.36;59.96
13050;BME280;6591;51.446;5.404;2022-10-18T07:03:50;102359.94;;;20.38;59.96
13050;BME280;6591;51.446;5.404;2022-10-18T07:06:19;102360.59;;;20.41;59.79
13050;BME280;6591;51.446;5.404;2022-10-18T07:08:49;102374.00;;;20.43;59.81
13050;BME280;6591;51.446;5.404;2022-10-18T07:11:20;102365.91;;;20.43;59.67
13050;BME280;6591;51.446;5.404;2022-10-18T07:13:48;102372.09;;;20.45;59.74
13050;BME280;6591;51.446;5.404;2022-10-18T07:16:18;102380.09;;;20.46;59.94
13050;BME280;6591;51.446;5.404;2022-10-18T07:18:48;102377.28;;;20.48;59.43
13050;BME280;6591;51.446;5.404;2022-10-18T07:21:19;102386.09;;;20.51;59.90
13050;BME280;6591;51.446;5.404;2022-10-18T07:23:47;102391.38;;;20.53;59.98
13050;BME280;6591;51.446;5.404;2022-10-18T07:26:20;102387.72;;;20.54;59.78
13050;BME280;6591;51.446;5.404;2022-10-18T07:28:53;102394.66;;;20.58;59.89
13050;BME280;6591;51.446;5.404;2022-10-18T07:31:22;102390.81;;;20.62;60.01
13050;BME280;6591;51.446;5.404;2022-10-18T07:33:51;102402.94;;;20.69;60.12
13050;BME280;6591;51.446;5.404;2022-10-18T07:36:18;102415.28;;;20.73;60.12
13050;BME280;6591;51.446;5.404;2022-10-18T07:38:48;102409.63;;;20.78;60.26
13050;BME280;6591;51.446;5.404;2022-10-18T07:41:18;102420.22;;;20.81;60.12
13050;BME280;6591;51.446;5.404;2022-10-18T07:43:51;102417.22;;;20.85;60.51
13050;BME280;6591;51.446;5.404;2022-10-18T07:46:20;102424.94;;;20.91;60.81
13050;BME280;6591;51.446;5.404;2022-10-18T07:48:49;102427.84;;;21.02;60.64
13050;BME280;6591;51.446;5.404;2022-10-18T07:51:18;102431.78;;;21.11;60.69
13050;BME280;6591;51.446;5.404;2022-10-18T07:53:45;102431.19;;;21.20;60.26
13050;BME280;6591;51.446;5.404;2022-10-18T07:56:18;102432.78;;;21.24;60.25
13050;BME280;6591;51.446;5.404;2022-10-18T07:58:50;102444.81;;;21.33;60.01
13050;BME280;6591;51.446;5.404;2022-10-18T08:01:22;102442.88;;;21.35;60.25
13050;BME280;6591;51.446;5.404;2022-10-18T08:03:51;102450.69;;;21.39;60.03
13050;BME280;6591;51.446;5.404;2022-10-18T08:06:20;102462.16;;;21.43;60.08
13050;BME280;6591;51.446;5.404;2022-10-18T08:08:49;102453.09;;;21.44;60.01
13050;BME280;6591;51.446;5.404;2022-10-18T08:11:21;102460.97;;;21.47;60.54
13050;BME280;6591;51.446;5.404;2022-10-18T08:13:49;102469.47;;;21.55;60.42
13050;BME280;6591;51.446;5.404;2022-10-18T08:16:21;102464.81;;;21.57;60.35
13050;BME280;6591;51.446;5.404;2022-10-18T08:18:50;102469.09;;;21.61;59.86
13050;BME280;6591;51.446;5.404;2022-10-18T08:21:19;102476.91;;;21.66;59.82
13050;BME280;6591;51.446;5.404;2022-10-18T08:23:47;102466.72;;;21.69;60.10
13050;BME280;6591;51.446;5.404;2022-10-18T08:26:19;102456.56;;;21.73;60.10
13050;BME280;6591;51.446;5.404;2022-10-18T08:28:48;102477.72;;;21.80;60.52
13050;BME280;6591;51.446;5.404;2022-10-18T08:31:32;102483.69;;;21.85;60.29
13050;BME280;6591;51.446;5.404;2022-10-18T08:33:59;102481.53;;;21.90;60.00
13050;BME280;6591;51.446;5.404;2022-10-18T08:36:26;102482.91;;;21.98;60.44
13050;BME280;6591;51.446;5.404;2022-10-18T08:38:55;102483.16;;;22.07;60.58
13050;BME280;6591;51.446;5.404;2022-10-18T08:44:22;102485.53;;;22.12;60.05
13050;BME280;6591;51.446;5.404;2022-10-18T08:47:16;102489.78;;;22.16;60.59
13050;BME280;6591;51.446;5.404;2022-10-18T08:49:51;102486.88;;;22.19;59.68
13050;BME280;6591;51.446;5.404;2022-10-18T08:55:43;102485.00;;;22.07;59.43
13050;BME280;6591;51.446;5.404;2022-10-18T08:58:23;102494.06;;;22.06;59.49
13050;BME280;6591;51.446;5.404;2022-10-18T09:09:51;102493.31;;;22.43;59.13
13050;BME280;6591;51.446;5.404;2022-10-18T09:12:50;102494.63;;;22.50;59.07
13050;BME280;6591;51.446;5.404;2022-10-18T09:21:20;102502.16;;;22.85;58.47
13050;BME280;6591;51.446;5.404;2022-10-18T09:24:10;102495.34;;;22.92;58.04
13050;BME280;6591;51.446;5.404;2022-10-18T09:26:46;102490.03;;;23.03;57.86
13050;BME280;6591;51.446;5.404;2022-10-18T09:30:12;102492.41;;;23.07;57.37
13050;BME280;6591;51.446;5.404;2022-10-18T09:32:55;102497.06;;;23.18;57.28
13050;BME280;6591;51.446;5.404;2022-10-18T09:35:42;102500.84;;;23.28;57.20
13050;BME280;6591;51.446;5.404;2022-10-18T09:38:18;102507.97;;;23.42;57.14
13050;BME280;6591;51.446;5.404;2022-10-18T09:41:38;102503.22;;;23.45;56.58
13050;BME280;6591;51.446;5.404;2022-10-18T09:44:24;102501.88;;;23.63;56.72
13050;BME280;6591;51.446;5.404;2022-10-18T09:47:43;102508.88;;;23.79;56.61
13050;BME280;6591;51.446;5.404;2022-10-18T09:49:57;102503.63;;;23.88;55.91
13050;BME280;6591;51.446;5.404;2022-10-18T09:52:38;102496.53;;;23.98;55.50
13050;BME280;6591;51.446;5.404;2022-10-18T09:55:19;102496.47;;;24.11;55.36
13050;BME280;6591;51.446;5.404;2022-10-18T09:57:56;102504.47;;;24.25;55.48
13050;BME280;6591;51.446;5.404;2022-10-18T10:00:33;102511.44;;;24.40;55.22
13050;BME280;6591;51.446;5.404;2022-10-18T10:03:09;102502.34;;;24.53;55.34
13050;BME280;6591;51.446;5.404;2022-10-18T10:05:36;102498.31;;;24.69;54.98
13050;BME280;6591;51.446;5.404;2022-10-18T10:08:03;102505.16;;;24.86;54.65
13050;BME280;6591;51.446;5.404;2022-10-18T10:10:31;102504.97;;;25.00;54.41
13050;BME280;6591;51.446;5.404;2022-10-18T10:13:24;102508.06;;;25.07;53.72
13050;BME280;6591;51.446;5.404;2022-10-18T10:16:01;102503.34;;;25.20;53.43
13050;BME280;6591;51.446;5.404;2022-10-18T10:18:32;102496.78;;;25.33;53.63
13050;BME280;6591;51.446;5.404;2022-10-18T10:21:07;102488.88;;;25.53;53.23
13050;BME280;6591;51.446;5.404;2022-10-18T10:23:51;102495.69;;;25.69;53.68
13050;BME280;6591;51.446;5.404;2022-10-18T10:26:27;102506.75;;;25.89;53.29
13050;BME280;6591;51.446;5.404;2022-10-18T10:28:55;102489.72;;;26.07;53.36
13050;BME280;6591;51.446;5.404;2022-10-18T10:31:33;102482.78;;;26.26;52.57
13050;BME280;6591;51.446;5.404;2022-10-18T10:34:26;102488.34;;;26.45;52.41
13050;BME280;6591;51.446;5.404;2022-10-18T10:36:54;102498.00;;;26.70;52.29
13050;BME280;6591;51.446;5.404;2022-10-18T10:39:23;102499.03;;;26.89;51.54
13050;BME280;6591;51.446;5.404;2022-10-18T10:41:56;102508.84;;;27.02;51.20
13050;BME280;6591;51.446;5.404;2022-10-18T10:44:30;102522.41;;;27.13;51.18
13050;BME280;6591;51.446;5.404;2022-10-18T10:46:59;102522.31;;;27.24;50.92
13050;BME280;6591;51.446;5.404;2022-10-18T10:49:42;102521.91;;;27.28;50.00
13050;BME280;6591;51.446;5.404;2022-10-18T10:52:20;102514.03;;;27.35;50.55
13050;BME280;6591;51.446;5.404;2022-10-18T10:54:56;102519.66;;;27.43;50.35
13050;BME280;6591;51.446;5.404;2022-10-18T10:57:46;102522.69;;;27.40;48.94
13050;BME280;6591;51.446;5.404;2022-10-18T11:03:13;102527.97;;;27.32;49.27
13050;BME280;6591;51.446;5.404;2022-10-18T11:05:57;102524.66;;;27.38;49.56
13050;BME280;6591;51.446;5.404;2022-10-18T11:08:34;102530.19;;;27.48;49.90
13050;BME280;6591;51.446;5.404;2022-10-18T11:11:20;102526.09;;;27.63;49.49
13050;BME280;6591;51.446;5.404;2022-10-18T11:14:04;102522.69;;;27.80;49.28
13050;BME280;6591;51.446;5.404;2022-10-18T11:20:24;102527.03;;;28.11;48.57
13050;BME280;6591;51.446;5.404;2022-10-18T11:23:04;102520.72;;;28.11;47.52
13050;BME280;6591;51.446;5.404;2022-10-18T11:37:37;102529.25;;;27.07;47.78
13050;BME280;6591;51.446;5.404;2022-10-18T11:43:27;102526.31;;;26.89;47.63
13050;BME280;6591;51.446;5.404;2022-10-18T11:46:52;102522.22;;;26.84;47.80
13050;BME280;6591;51.446;5.404;2022-10-18T11:50:47;102526.06;;;26.81;47.76
13050;BME280;6591;51.446;5.404;2022-10-18T11:56:25;102522.19;;;26.95;46.82
13050;BME280;6591;51.446;5.404;2022-10-18T12:02:19;102520.81;;;27.10;46.22
13050;BME280;6591;51.446;5.404;2022-10-18T12:05:16;102518.69;;;27.14;46.34
13050;BME280;6591;51.446;5.404;2022-10-18T12:08:13;102513.38;;;27.22;45.94
13050;BME280;6591;51.446;5.404;2022-10-18T12:10:47;102511.84;;;27.29;46.28
13050;BME280;6591;51.446;5.404;2022-10-18T12:14:01;102513.72;;;27.28;45.78
13050;BME280;6591;51.446;5.404;2022-10-18T12:16:38;102509.13;;;27.29;45.51
13050;BME280;6591;51.446;5.404;2022-10-18T12:19:30;102512.72;;;27.29;45.24
13050;BME280;6591;51.446;5.404;2022-10-18T12:22:39;102512.41;;;27.23;45.71
13050;BME280;6591;51.446;5.404;2022-10-18T12:25:13;102506.13;;;27.32;45.75
13050;BME280;6591;51.446;5.404;2022-10-18T12:31:30;102502.34;;;27.23;45.19
13050;BME280;6591;51.446;5.404;2022-10-18T12:34:22;102504.03;;;27.15;44.77
13050;BME280;6591;51.446;5.404;2022-10-18T12:39:50;102490.38;;;27.05;45.18
13050;BME280;6591;51.446;5.404;2022-10-18T12:42:50;102492.81;;;27.08;45.07
13050;BME280;6591;51.446;5.404;2022-10-18T12:45:32;102501.13;;;27.07;44.69
13050;BME280;6591;51.446;5.404;2022-10-18T12:48:05;102491.81;;;27.09;44.22
13050;BME280;6591;51.446;5.404;2022-10-18T12:50:36;102495.25;;;27.11;44.70
13050;BME280;6591;51.446;5.404;2022-10-18T12:53:18;102484.75;;;27.07;44.04
13050;BME280;6591;51.446;5.404;2022-10-18T12:55:50;102491.47;;;27.03;43.40
13050;BME280;6591;51.446;5.404;2022-10-18T13:25:13;102471.41;;;26.62;43.94
13050;BME280;6591;51.446;5.404;2022-10-18T13:30:40;102482.72;;;26.78;43.97
13050;BME280;6591;51.446;5.404;2022-10-18T13:33:35;102474.53;;;26.78;43.09
13050;BME280;6591;51.446;5.404;2022-10-18T13:39:02;102476.34;;;26.68;43.55
13050;BME280;6591;51.446;5.404;2022-10-18T13:44:33;102475.59;;;26.66;43.18
13050;BME280;6591;51.446;5.404;2022-10-18T13:49:43;102475.00;;;26.63;43.40
13050;BME280;6591;51.446;5.404;2022-10-18T13:59:17;102480.13;;;26.56;42.61
13050;BME280;6591;51.446;5.404;2022-10-18T14:02:12;102484.00;;;26.53;42.00
13050;BME280;6591;51.446;5.404;2022-10-18T14:08:00;102478.72;;;26.41;42.15
13050;BME280;6591;51.446;5.404;2022-10-18T14:11:05;102480.00;;;26.37;42.62
13050;BME280;6591;51.446;5.404;2022-10-18T14:13:50;102485.69;;;26.34;42.67
13050;BME280;6591;51.446;5.404;2022-10-18T14:16:41;102480.75;;;26.28;42.64
13050;BME280;6591;51.446;5.404;2022-10-18T14:19:39;102484.00;;;26.22;42.47
13050;BME280;6591;51.446;5.404;2022-10-18T14:22:34;102490.84;;;26.16;42.71
13050;BME280;6591;51.446;5.404;2022-10-18T14:25:21;102479.94;;;26.16;42.74
13050;BME280;6591;51.446;5.404;2022-10-18T14:31:00;102486.63;;;26.12;42.47
13050;BME280;6591;51.446;5.404;2022-10-18T14:33:42;102485.03;;;26.09;41.88
13050;BME280;6591;51.446;5.404;2022-10-18T14:36:46;102478.84;;;26.07;42.23
13050;BME280;6591;51.446;5.404;2022-10-18T14:39:25;102493.72;;;26.03;41.66
13050;BME280;6591;51.446;5.404;2022-10-18T14:41:58;102490.25;;;26.01;41.96
13050;BME280;6591;51.446;5.404;2022-10-18T14:44:29;102485.94;;;25.99;41.89
13050;BME280;6591;51.446;5.404;2022-10-18T14:47:20;102497.84;;;25.87;41.86
13050;BME280;6591;51.446;5.404;2022-10-18T14:49:49;102487.09;;;25.85;41.43
13050;BME280;6591;51.446;5.404;2022-10-18T14:52:26;102485.75;;;25.80;41.94
13050;BME280;6591;51.446;5.404;2022-10-18T14:55:02;102489.34;;;25.80;42.26
13050;BME280;6591;51.446;5.404;2022-10-18T14:57:35;102494.03;;;25.78;41.59
13050;BME280;6591;51.446;5.404;2022-10-18T15:00:07;102491.19;;;25.80;41.44
13050;BME280;6591;51.446;5.404;2022-10-18T15:02:37;102488.34;;;25.81;41.92
13050;BME280;6591;51.446;5.404;2022-10-18T15:05:09;102492.78;;;25.82;41.30
13050;BME280;6591;51.446;5.404;2022-10-18T15:07:43;102485.22;;;25.86;41.51
13050;BME280;6591;51.446;5.404;2022-10-18T15:10:25;102481.66;;;25.85;41.55
13050;BME280;6591;51.446;5.404;2022-10-18T15:12:55;102490.31;;;25.90;41.96
13050;BME280;6591;51.446;5.404;2022-10-18T15:15:37;102499.06;;;25.94;42.28
13050;BME280;6591;51.446;5.404;2022-10-18T15:18:07;102490.78;;;25.95;41.90
13050;BME280;6591;51.446;5.404;2022-10-18T15:20:40;102494.00;;;26.00;41.48
13050;BME280;6591;51.446;5.404;2022-10-18T15:23:25;102484.31;;;25.96;41.42
13050;BME280;6591;51.446;5.404;2022-10-18T15:26:11;102474.97;;;25.89;41.29
13050;BME280;6591;51.446;5.404;2022-10-18T15:28:43;102477.28;;;25.94;41.14
13050;BME280;6591;51.446;5.404;2022-10-18T15:31:32;102484.13;;;25.88;41.04
13050;BME280;6591;51.446;5.404;2022-10-18T15:34:22;102487.47;;;25.81;41.15
13050;BME280;6591;51.446;5.404;2022-10-18T15:36:53;102482.16;;;25.79;41.17
13050;BME280;6591;51.446;5.404;2022-10-18T15:39:26;102483.66;;;25.72;40.98
13050;BME280;6591;51.446;5.404;2022-10-18T15:42:03;102489.50;;;25.67;40.89
13050;BME280;6591;51.446;5.404;2022-10-18T15:44:46;102482.97;;;25.59;40.99
13050;BME280;6591;51.446;5.404;2022-10-18T15:47:18;102488.63;;;25.56;41.05